東京理科大学Ⅰ部体育局航空部

このエントリーをはてなブックマークに追加

ようこそ、理科大航空部HPへ! ここでは、航空部に関する情報や、活動などをお知らせしています。


METAR・TAF

TOKYO INTERNATIONAL
Metar
RJTT 290830Z 18019KT 9999 FEW030 BKN/// 23/14 Q1010 NOSIG

08:30 UTC

Wind: 180° 19kt

Visibility: 9999 m

Sky: FEW 3000 ft

Temp: 23 deg C / 73.4 deg F

Dewpoint: 14 deg C / 57.2 deg F

Pressure: 1010 hPa

TAF
TAF RJTT 290506Z 2906/3012 19018KT 9999 FEW030 BECMG 2915/2917 22006KT BECMG 3000/3003 18018KT
NARITA INTERNATIONAL
Metar
RJAA 290830Z 16010KT 130V190 9999 FEW030 SCT/// 22/16 Q1010 WS R16L NOSIG

08:30 UTC

Wind: 160° 10kt

Visibility: 9999 m

Sky: FEW 3000 ft

Temp: 22 deg C / 71.6 deg F

Dewpoint: 16 deg C / 60.8 deg F

Pressure: 1010 hPa

TAF
TAF RJAA 290505Z 2906/3012 16012KT 9999 FEW030 BECMG 2918/2921 23006KT

Ka6対抗戦開催中です!!

~~ 途中経過 ~~

1位 東工大 126.11点

2位 理科大 95.87点

詳細の途中経過報告はこちら